Esquina — 2DOU6 — position and weather

sailwx.info

Track history (hours):
 
Tides and Currents Weather Stations Pressure Air Temp Water Temp Dewpoint Dewpoint Depression Visibility Wind Speed Wind Dir Waves Ship Positions

Esquina

Last reported at 2017-May-22 14:52 UTC. Time now 2017-May-22 19:36 UTC.
Position N 47°43' W 003°21'.

Type: Other ship. MMSI: 235080801.

Date/timePositionNaut miles runAvg speedWind from/ knotsBaromVisibWave heightAir tempDewpointWater temp
2017-May-22 14:52N 47°43' W 003°21'2 2.7
2017-May-22 14:00N 47°40' W 003°21'3 5.7
2017-May-22 13:29N 47°39' W 003°17'1 1.0
2017-May-22 13:00N 47°40' W 003°16'4 8.1
2017-May-22 12:30N 47°36' W 003°17'4 7.5
2017-May-22 12:00N 47°39' W 003°21'1 2.9
2017-May-22 11:30N 47°40' W 003°21'2 3.3
2017-May-22 11:00N 47°39' W 003°19'2 4.6
2017-May-22 10:28N 47°40' W 003°16'4 7.7
2017-May-22 10:00N 47°40' W 003°21'  
2017-May-19 11:56N 47°43' W 003°21'2 4.6
2017-May-19 11:30N 47°45' W 003°21'2 4.9
2017-May-19 11:00N 47°42' W 003°22'3 6.0
2017-May-19 10:30N 47°39' W 003°21'2 4.7
2017-May-19 10:00N 47°37' W 003°20'3 6.0
2017-May-19 09:30N 47°35' W 003°17'0 0.3
2017-May-19 08:55N 47°35' W 003°17'0 0.2
2017-May-19 08:30N 47°35' W 003°17'0 0.9
2017-May-19 07:59N 47°35' W 003°17'1 1.4
2017-May-19 07:30N 47°35' W 003°18'3 5.6
2017-May-19 07:00N 47°37' W 003°20'3 5.6
2017-May-19 06:30N 47°40' W 003°22'3 6.2
2017-May-19 06:00N 47°43' W 003°22'2 3.1
2017-May-19 05:28N 47°45' W 003°21'1 2.8
2017-May-19 05:00N 47°43' W 003°22'1 0.1
2017-May-18 12:18N 47°43' W 003°21'1 3.2
2017-May-18 11:59N 47°44' W 003°22'1 2.3
2017-May-18 11:29N 47°45' W 003°21'3 6.1
2017-May-18 11:00N 47°42' W 003°22'4 8.3
2017-May-18 10:30N 47°38' W 003°21'2 4.0
2017-May-18 10:00N 47°36' W 003°20'3 6.1
2017-May-18 09:31N 47°39' W 003°22'2 3.1
2017-May-18 09:01N 47°37' W 003°23'0 0.6
2017-May-18 08:31N 47°37' W 003°23'1 2.5
2017-May-18 08:01N 47°36' W 003°22'4 7.9
2017-May-18 07:30N 47°34' W 003°17'2 4.9
2017-May-18 07:00N 47°36' W 003°17'2 3.7
2017-May-18 06:30N 47°37' W 003°20'510.1
2017-May-18 06:00N 47°42' W 003°22'3 6.0
2017-May-18 05:30N 47°45' W 003°21'2 0.1
2017-May-17 07:58N 47°43' W 003°21'0 0.0
2017-May-16 14:42N 47°43' W 003°21'0 1.2
2017-May-16 14:30N 47°43' W 003°22'3 2.6
2017-May-16 13:29N 47°41' W 003°19'0 0.4
2017-May-16 12:59N 47°41' W 003°19'1 1.8
2017-May-16 12:30N 47°40' W 003°20'2 3.4
2017-May-16 12:00N 47°39' W 003°18'1 1.2
2017-May-16 11:30N 47°39' W 003°18'4 7.4
2017-May-16 11:01N 47°37' W 003°12'3 5.3
2017-May-16 10:30N 47°39' W 003°15'0 0.5
2017-May-16 09:59N 47°39' W 003°16'2 4.1
2017-May-16 09:31N 47°39' W 003°18'1 2.1
2017-May-16 09:00N 47°39' W 003°17'1 2.0
2017-May-16 08:30N 47°38' W 003°17'2 3.4
2017-May-16 08:00N 47°39' W 003°15'0 0.4
2017-May-16 07:30N 47°39' W 003°16'1 1.3
2017-May-16 07:00N 47°39' W 003°15'1 1.0
2017-May-16 06:30N 47°39' W 003°15'3 6.6
2017-May-16 06:00N 47°40' W 003°19'3 0.2
2017-May-15 17:30N 47°43' W 003°21'1 2.1
2017-May-15 16:59N 47°44' W 003°22'1 2.2
2017-May-15 16:29N 47°45' W 003°21'1 1.5
2017-May-15 16:00N 47°44' W 003°21'4 7.1
2017-May-15 15:30N 47°40' W 003°21'4 7.7
2017-May-15 15:00N 47°39' W 003°16'5 5.0
2017-May-15 14:00N 47°35' W 003°11'1 2.0
2017-May-15 13:30N 47°35' W 003°12'4 7.0
2017-May-15 13:00N 47°33' W 003°17'5 9.4
2017-May-15 12:27N 47°35' W 003°23'4 9.1
2017-May-15 12:00N 47°33' W 003°17'2 3.9
2017-May-15 11:30N 47°35' W 003°17'1 2.1
2017-May-15 11:00N 47°36' W 003°17'3 5.0
2017-May-15 10:30N 47°37' W 003°20'3 6.0
2017-May-15 10:00N 47°40' W 003°22'4 7.1
2017-May-15 09:30N 47°44' W 003°21'1 1.8
2017-May-15 08:59N 47°45' W 003°21'3 6.4
2017-May-15 08:30N 47°42' W 003°22'714.8
2017-May-15 08:00N 47°37' W 003°13'3 5.2
2017-May-15 07:30N 47°36' W 003°10'2 3.3
2017-May-15 06:59N 47°35' W 003°12'1 2.9
2017-May-15 06:30N 47°35' W 003°14'4 7.3
2017-May-15 06:00N 47°38' W 003°18'4 7.6
2017-May-15 05:30N 47°40' W 003°22'4 7.4
2017-May-15 05:00N 47°44' W 003°21'0 0.4
2017-May-15 04:30N 47°44' W 003°21'1 2.5
2017-May-15 03:59N 47°43' W 003°21'  
Track history (hours):
 
Tides and Currents Weather Stations Pressure Air Temp Water Temp Dewpoint Dewpoint Depression Visibility Wind Speed Wind Dir Waves Ship Positions

Esquina

Last reported at 2017-May-22 14:52 UTC. Time now 2017-May-22 19:36 UTC.
Position N 47°43' W 003°21'.

Type: Other ship. MMSI: 235080801.

Date/timePositionNaut miles runAvg speedWind from/ knotsBaromVisibWave heightAir tempDewpointWater temp
2017-May-22 14:52N 47°43' W 003°21'2 2.7
2017-May-22 14:00N 47°40' W 003°21'3 5.7
2017-May-22 13:29N 47°39' W 003°17'1 1.0
2017-May-22 13:00N 47°40' W 003°16'4 8.1
2017-May-22 12:30N 47°36' W 003°17'4 7.5
2017-May-22 12:00N 47°39' W 003°21'1 2.9
2017-May-22 11:30N 47°40' W 003°21'2 3.3
2017-May-22 11:00N 47°39' W 003°19'2 4.6
2017-May-22 10:28N 47°40' W 003°16'4 7.7
2017-May-22 10:00N 47°40' W 003°21'  
2017-May-19 11:56N 47°43' W 003°21'2 4.6
2017-May-19 11:30N 47°45' W 003°21'2 4.9
2017-May-19 11:00N 47°42' W 003°22'3 6.0
2017-May-19 10:30N 47°39' W 003°21'2 4.7
2017-May-19 10:00N 47°37' W 003°20'3 6.0
2017-May-19 09:30N 47°35' W 003°17'0 0.3
2017-May-19 08:55N 47°35' W 003°17'0 0.2
2017-May-19 08:30N 47°35' W 003°17'0 0.9
2017-May-19 07:59N 47°35' W 003°17'1 1.4
2017-May-19 07:30N 47°35' W 003°18'3 5.6
2017-May-19 07:00N 47°37' W 003°20'3 5.6
2017-May-19 06:30N 47°40' W 003°22'3 6.2
2017-May-19 06:00N 47°43' W 003°22'2 3.1
2017-May-19 05:28N 47°45' W 003°21'1 2.8
2017-May-19 05:00N 47°43' W 003°22'1 0.1
2017-May-18 12:18N 47°43' W 003°21'1 3.2
2017-May-18 11:59N 47°44' W 003°22'1 2.3
2017-May-18 11:29N 47°45' W 003°21'3 6.1
2017-May-18 11:00N 47°42' W 003°22'4 8.3
2017-May-18 10:30N 47°38' W 003°21'2 4.0
2017-May-18 10:00N 47°36' W 003°20'3 6.1
2017-May-18 09:31N 47°39' W 003°22'2 3.1
2017-May-18 09:01N 47°37' W 003°23'0 0.6
2017-May-18 08:31N 47°37' W 003°23'1 2.5
2017-May-18 08:01N 47°36' W 003°22'4 7.9
2017-May-18 07:30N 47°34' W 003°17'2 4.9
2017-May-18 07:00N 47°36' W 003°17'2 3.7
2017-May-18 06:30N 47°37' W 003°20'510.1
2017-May-18 06:00N 47°42' W 003°22'3 6.0
2017-May-18 05:30N 47°45' W 003°21'2 0.1
2017-May-17 07:58N 47°43' W 003°21'0 0.0
2017-May-16 14:42N 47°43' W 003°21'0 1.2
2017-May-16 14:30N 47°43' W 003°22'3 2.6
2017-May-16 13:29N 47°41' W 003°19'0 0.4
2017-May-16 12:59N 47°41' W 003°19'1 1.8
2017-May-16 12:30N 47°40' W 003°20'2 3.4
2017-May-16 12:00N 47°39' W 003°18'1 1.2
2017-May-16 11:30N 47°39' W 003°18'4 7.4
2017-May-16 11:01N 47°37' W 003°12'3 5.3
2017-May-16 10:30N 47°39' W 003°15'0 0.5
2017-May-16 09:59N 47°39' W 003°16'2 4.1
2017-May-16 09:31N 47°39' W 003°18'1 2.1
2017-May-16 09:00N 47°39' W 003°17'1 2.0
2017-May-16 08:30N 47°38' W 003°17'2 3.4
2017-May-16 08:00N 47°39' W 003°15'0 0.4
2017-May-16 07:30N 47°39' W 003°16'1 1.3
2017-May-16 07:00N 47°39' W 003°15'1 1.0
2017-May-16 06:30N 47°39' W 003°15'3 6.6
2017-May-16 06:00N 47°40' W 003°19'3 0.2
2017-May-15 17:30N 47°43' W 003°21'1 2.1
2017-May-15 16:59N 47°44' W 003°22'1 2.2
2017-May-15 16:29N 47°45' W 003°21'1 1.5
2017-May-15 16:00N 47°44' W 003°21'4 7.1
2017-May-15 15:30N 47°40' W 003°21'4 7.7
2017-May-15 15:00N 47°39' W 003°16'5 5.0
2017-May-15 14:00N 47°35' W 003°11'1 2.0
2017-May-15 13:30N 47°35' W 003°12'4 7.0
2017-May-15 13:00N 47°33' W 003°17'5 9.4
2017-May-15 12:27N 47°35' W 003°23'4 9.1
2017-May-15 12:00N 47°33' W 003°17'2 3.9
2017-May-15 11:30N 47°35' W 003°17'1 2.1
2017-May-15 11:00N 47°36' W 003°17'3 5.0
2017-May-15 10:30N 47°37' W 003°20'3 6.0
2017-May-15 10:00N 47°40' W 003°22'4 7.1
2017-May-15 09:30N 47°44' W 003°21'1 1.8
2017-May-15 08:59N 47°45' W 003°21'3 6.4
2017-May-15 08:30N 47°42' W 003°22'714.8
2017-May-15 08:00N 47°37' W 003°13'3 5.2
2017-May-15 07:30N 47°36' W 003°10'2 3.3
2017-May-15 06:59N 47°35' W 003°12'1 2.9
2017-May-15 06:30N 47°35' W 003°14'4 7.3
2017-May-15 06:00N 47°38' W 003°18'4 7.6
2017-May-15 05:30N 47°40' W 003°22'4 7.4
2017-May-15 05:00N 47°44' W 003°21'0 0.4
2017-May-15 04:30N 47°44' W 003°21'1 2.5
2017-May-15 03:59N 47°43' W 003°21'  

Dump ship's entire track history